No se requiere ningun cuidado especial respecto a la situación metereológica.   -   No hay avisos

Informes METAR

 

KSJC - San Jose, California, USA
Distancia de la estación: NE 14km
Actualización: 05/04/2020 08:53
Lluvia intensa, Neblina, Cubierto
Lluvia intensa, Neblina, Cubierto
 Viento de SSE
Viento: SSE 6 km/h
Temperatura: 12°C
Rocío: 11°C
Humedad: 94%
Barómetro: 1007.8 hPa
Resumen: Lluvia intensa, Neblina
Nubes: Cubierto
Visibilidad: 2.8 km
Detalles de las nubes: Poco nuboso 30 m
Parcialmente nuboso 457 m
Cubierto 823 m
2020/04/05 06:53 KSJC 050653Z 16003KT 1 3/4SM +RA BR FEW001 SCT015 OVC027 12/11 A2976 RMK AO2 SLP077 LAST P0016 T01220106 $
KNUQ - Moffett Nas/Mtn, California, USA
Distancia de la estación: N 14km
Actualización: 21/11/2019 17:56
NOT Current

 
Barómetro: 1011.2 hPa
2019/11/21 16:56 KNUQ 211656Z AUTO A2986 RMK AO2 SLP116 PWINO $
 
KPAO - Palo Alto, California, USA
Distancia de la estación: NNO 23km
Actualización: 05/04/2020 05:47
NOT Current
Lluvia, Cubierto
Lluvia, Cubierto
 Viento de SSE
Viento: SSE 9 km/h
Temperatura: 13°C
Rocío: 12°C
Humedad: 94%
Barómetro: 1008.8 hPa
Resumen: Lluvia
Nubes: Cubierto
Visibilidad: 11 km
Detalles de las nubes: Muy nuboso 488 m
Cubierto 1219 m
2020/04/05 03:47 KPAO 050347Z 15005KT 7SM RA BKN016 OVC040 13/12 A2979 RMK LAST
KRHV - San Jose/Reid, California, USA
Distancia de la estación: ENE 19km
Actualización: 05/04/2020 06:47
NOT Current
Muy nuboso
Muy nuboso
 Viento de SE
Viento: SE 13 km/h
Temperatura: 13°C
Rocío: 10°C
Humedad: 82%
Barómetro: 1008.8 hPa
Nubes: Muy nuboso
Visibilidad: 16 km
Detalles de las nubes: Muy nuboso 914 m
2020/04/05 04:47 KRHV 050447Z 13007KT 10SM BKN030 13/10 A2979 RMK LAST
 
KOAK - Oakland, California, USA
Distancia de la estación: NNO 50km
Actualización: 05/04/2020 08:53
Cubierto
Cubierto
 Viento de SO
Viento: SO 15 km/h
Temperatura: 14°C
Rocío: 10°C
Humedad: 77%
Barómetro: 1007.8 hPa
Nubes: Cubierto
Visibilidad: 16 km
Detalles de las nubes: Poco nuboso 518 m
Muy nuboso 1311 m
Cubierto 1676 m
2020/04/05 06:53 KOAK 050653Z 22008KT 10SM FEW017 BKN043 OVC055 14/10 A2976 RMK AO2 SLP075 T01390100
KSQL - San Carlos Airpo, California, USA
Distancia de la estación: NO 34km
Actualización: 05/04/2020 08:55
Cubierto
Cubierto
 Viento de S
Viento: S 6 km/h
Temperatura: 12°C
Rocío: 10°C
Humedad: 88%
Barómetro: 1007.8 hPa
Nubes: Cubierto
Visibilidad: 16 km
Detalles de las nubes: Parcialmente nuboso 732 m
Cubierto 1036 m
2020/04/05 06:55 KSQL 050655Z AUTO 19003KT 10SM SCT024 OVC034 12/10 A2976 RMK AO2
 
KSFO - San Francisco, California, USA
Distancia de la estación: NO 49km
Actualización: 05/04/2020 08:56
Lluvia débil, Cubierto
Lluvia débil, Cubierto
 Viento de S
Viento: S 7 km/h
Temperatura: 13°C
Rocío: 9°C
Humedad: 77%
Barómetro: 1007.5 hPa
Resumen: Lluvia débil
Nubes: Cubierto
Visibilidad: 16 km
Detalles de las nubes: Poco nuboso 610 m
Muy nuboso 914 m
Cubierto 1372 m
2020/04/05 06:56 KSFO 050656Z 19004KT 10SM -RA FEW020 BKN030 OVC045 13/09 A2975 RMK AO2 RAB33 SLP073 P0000 T01280094 $
KE16 - San Martin, California, USA
Distancia de la estación: ESE 43km
Actualización: 14/11/2019 10:35
NOT Current
Cubierto
Cubierto
 Viento de SE
Viento: SE 11 km/h
Temperatura: 12°C
Rocío: 10°C
Humedad: 88%
Barómetro: 1017.6 hPa
Nubes: Cubierto
Visibilidad: 16 km
Detalles de las nubes: Cubierto 427 m
2019/11/14 09:35 KE16 140935Z AUTO 13006KT 10SM OVC014 12/10 A3005 RMK AO2
 
KWVI - Watsonville, California, USA
Distancia de la estación: SSE 44km
Actualización: 05/04/2020 08:53
Cubierto
Cubierto
 Viento de SSO
Viento: SSO 22 km/h
Temperatura: 12°C
Rocío: 12°C
Humedad: 100%
Barómetro: 1009.1 hPa
Nubes: Cubierto
Visibilidad: 16 km
Detalles de las nubes: Poco nuboso 640 m
Poco nuboso 1158 m
Cubierto 1676 m
2020/04/05 06:53 KWVI 050653Z AUTO 21012KT 10SM FEW021 FEW038 OVC055 12/12 A2980 RMK AO2 RAB16E52 SLP089 P0004 T01220117
KHAF - Half Moon Bay, California, USA
Distancia de la estación: ONO 50km
Actualización: 05/04/2020 08:55
Cubierto
Cubierto
 Viento de SO
Viento: SO 15 km/h, Racha: 26 km/h
Temperatura: 12°C
Rocío: 10°C
Humedad: 88%
Barómetro: 1007.8 hPa
Nubes: Cubierto
Visibilidad: 11 km
Detalles de las nubes: Parcialmente nuboso 274 m
Muy nuboso 488 m
Cubierto 1494 m
2020/04/05 06:55 KHAF 050655Z AUTO 22008G14KT 7SM SCT009 BKN016 OVC049 12/10 A2976 RMK AO2
 
KHWD - Hayward, California, USA
Distancia de la estación: N 44km
Actualización: 05/04/2020 08:54
Cubierto
Cubierto
 Viento de SO
Viento: SO 11 km/h
Temperatura: 12°C
Rocío: 11°C
Humedad: 94%
Barómetro: 1007.5 hPa
Nubes: Cubierto
Visibilidad: 16 km
Detalles de las nubes: Poco nuboso 853 m
Cubierto 1372 m
2020/04/05 06:54 KHWD 050654Z AUTO 23006KT 10SM FEW028 OVC045 12/11 A2975 RMK AO2 SLP083 T01220106
KLVK - Livermore, California, USA
Distancia de la estación: NNE 51km
Actualización: 05/04/2020 08:53
Lluvia intensa, Neblina, Cubierto
Lluvia intensa, Neblina, Cubierto
 Viento de ONO
Viento: ONO 9 km/h
Temperatura: 11°C
Rocío: 10°C
Humedad: 94%
Barómetro: 1007.1 hPa
Resumen: Lluvia intensa, Neblina
Nubes: Cubierto
Visibilidad: 2 km
Detalles de las nubes: Muy nuboso 305 m
Cubierto 518 m
2020/04/05 06:53 KLVK 050653Z AUTO 30005KT 1SM +RA BR BKN010 OVC017 11/10 A2974 RMK AO2 RAB0554 SLP070 T01060100 PNO $